sensor_id;sensor_type;location;lat;lon;timestamp;pressure;altitude;pressure_sealevel;temperature;humidity
18765;BME280;9511;54.242;12.448;2023-06-22T03:04:41;101801.91;;;14.04;100.00
18765;BME280;9511;54.242;12.448;2023-06-22T03:07:09;101808.19;;;14.06;100.00
18765;BME280;9511;54.242;12.448;2023-06-22T03:09:37;101812.66;;;14.09;100.00
18765;BME280;9511;54.242;12.448;2023-06-22T03:12:04;101808.34;;;14.13;100.00
18765;BME280;9511;54.242;12.448;2023-06-22T03:14:43;101818.13;;;14.14;100.00
18765;BME280;9511;54.242;12.448;2023-06-22T03:17:10;101819.16;;;14.19;100.00
18765;BME280;9511;54.242;12.448;2023-06-22T03:19:38;101817.44;;;14.21;100.00
18765;BME280;9511;54.242;12.448;2023-06-22T03:22:06;101828.94;;;14.20;100.00
18765;BME280;9511;54.242;12.448;2023-06-22T03:24:34;101828.94;;;14.20;100.00
18765;BME280;9511;54.242;12.448;2023-06-22T03:27:03;101829.06;;;14.24;100.00
18765;BME280;9511;54.242;12.448;2023-06-22T03:29:33;101828.31;;;14.28;100.00
18765;BME280;9511;54.242;12.448;2023-06-22T03:32:01;101831.06;;;14.33;100.00
18765;BME280;9511;54.242;12.448;2023-06-22T03:34:31;101840.13;;;14.40;100.00
18765;BME280;9511;54.242;12.448;2023-06-22T03:36:59;101828.69;;;14.44;100.00
18765;BME280;9511;54.242;12.448;2023-06-22T03:39:28;101833.31;;;14.49;100.00
18765;BME280;9511;54.242;12.448;2023-06-22T03:41:55;101830.81;;;14.55;100.00
18765;BME280;9511;54.242;12.448;2023-06-22T03:44:24;101829.16;;;14.60;100.00
18765;BME280;9511;54.242;12.448;2023-06-22T03:46:51;101831.13;;;14.68;100.00
18765;BME280;9511;54.242;12.448;2023-06-22T03:49:19;101831.22;;;14.71;100.00
18765;BME280;9511;54.242;12.448;2023-06-22T03:51:46;101826.78;;;14.71;100.00
18765;BME280;9511;54.242;12.448;2023-06-22T03:54:13;101831.31;;;14.74;100.00
18765;BME280;9511;54.242;12.448;2023-06-22T03:56:42;101825.97;;;14.74;100.00
18765;BME280;9511;54.242;12.448;2023-06-22T03:59:09;101842.84;;;14.74;100.00
18765;BME280;9511;54.242;12.448;2023-06-22T04:01:37;101837.53;;;14.74;100.00
18765;BME280;9511;54.242;12.448;2023-06-22T04:04:05;101835.00;;;14.80;100.00
18765;BME280;9511;54.242;12.448;2023-06-22T04:06:32;101840.38;;;14.82;100.00
18765;BME280;9511;54.242;12.448;2023-06-22T04:09:00;101846.72;;;14.87;100.00
18765;BME280;9511;54.242;12.448;2023-06-22T04:11:28;101842.47;;;14.95;100.00
18765;BME280;9511;54.242;12.448;2023-06-22T04:13:57;101847.78;;;14.95;100.00
18765;BME280;9511;54.242;12.448;2023-06-22T04:16:24;101846.91;;;14.95;100.00
18765;BME280;9511;54.242;12.448;2023-06-22T04:18:51;101848.75;;;14.97;100.00
18765;BME280;9511;54.242;12.448;2023-06-22T04:21:19;101857.66;;;14.98;100.00
18765;BME280;9511;54.242;12.448;2023-06-22T04:23:46;101862.09;;;14.99;100.00
18765;BME280;9511;54.242;12.448;2023-06-22T04:26:14;101865.81;;;15.05;100.00
18765;BME280;9511;54.242;12.448;2023-06-22T04:28:41;101865.91;;;15.08;100.00
18765;BME280;9511;54.242;12.448;2023-06-22T04:31:10;101860.56;;;15.08;100.00
18765;BME280;9511;54.242;12.448;2023-06-22T04:33:38;101862.06;;;14.97;100.00
18765;BME280;9511;54.242;12.448;2023-06-22T04:36:06;101861.97;;;14.94;100.00
18765;BME280;9511;54.242;12.448;2023-06-22T04:38:33;101854.16;;;15.02;100.00
18765;BME280;9511;54.242;12.448;2023-06-22T04:41:01;101862.22;;;15.03;100.00
18765;BME280;9511;54.242;12.448;2023-06-22T04:43:29;101862.06;;;14.97;100.00
18765;BME280;9511;54.242;12.448;2023-06-22T04:45:56;101856.91;;;15.03;100.00
18765;BME280;9511;54.242;12.448;2023-06-22T04:48:30;101851.59;;;15.05;100.00
18765;BME280;9511;54.242;12.448;2023-06-22T04:50:59;101855.53;;;15.21;100.00
18765;BME280;9511;54.242;12.448;2023-06-22T04:53:29;101862.78;;;15.26;100.00
18765;BME280;9511;54.242;12.448;2023-06-22T04:55:57;101852.41;;;15.40;100.00
18765;BME280;9511;54.242;12.448;2023-06-22T04:58:24;101850.88;;;15.51;100.00
18765;BME280;9511;54.242;12.448;2023-06-22T05:00:54;101855.53;;;15.60;100.00
18765;BME280;9511;54.242;12.448;2023-06-22T05:03:24;101862.88;;;15.69;100.00
18765;BME280;9511;54.242;12.448;2023-06-22T05:05:53;101860.72;;;15.93;100.00
18765;BME280;9511;54.242;12.448;2023-06-22T05:08:21;101857.38;;;16.03;100.00
18765;BME280;9511;54.242;12.448;2023-06-22T05:10:52;101856.81;;;16.19;100.00
18765;BME280;9511;54.242;12.448;2023-06-22T05:13:19;101863.34;;;16.35;100.00
18765;BME280;9511;54.242;12.448;2023-06-22T05:15:47;101860.13;;;16.53;100.00
18765;BME280;9511;54.242;12.448;2023-06-22T05:18:15;101867.53;;;16.69;100.00
18765;BME280;9511;54.242;12.448;2023-06-22T05:20:42;101872.16;;;16.77;100.00
18765;BME280;9511;54.242;12.448;2023-06-22T05:23:11;101865.13;;;16.83;100.00
18765;BME280;9511;54.242;12.448;2023-06-22T05:25:38;101864.50;;;16.98;100.00
18765;BME280;9511;54.242;12.448;2023-06-22T05:28:05;101861.06;;;17.07;100.00
18765;BME280;9511;54.242;12.448;2023-06-22T05:30:36;101857.56;;;17.11;100.00
18765;BME280;9511;54.242;12.448;2023-06-22T05:33:04;101860.25;;;17.12;100.00
18765;BME280;9511;54.242;12.448;2023-06-22T05:35:31;101865.88;;;17.29;100.00
18765;BME280;9511;54.242;12.448;2023-06-22T05:37:58;101871.31;;;17.35;100.00
18765;BME280;9511;54.242;12.448;2023-06-22T05:40:27;101860.03;;;17.56;100.00
18765;BME280;9511;54.242;12.448;2023-06-22T05:42:55;101854.78;;;17.65;100.00
18765;BME280;9511;54.242;12.448;2023-06-22T05:45:24;101851.41;;;17.75;100.00
18765;BME280;9511;54.242;12.448;2023-06-22T05:47:53;101856.84;;;17.82;100.00
18765;BME280;9511;54.242;12.448;2023-06-22T05:50:21;101857.88;;;17.91;100.00
18765;BME280;9511;54.242;12.448;2023-06-22T05:52:48;101867.94;;;18.12;100.00
18765;BME280;9511;54.242;12.448;2023-06-22T05:55:15;101876.88;;;18.14;100.00
18765;BME280;9511;54.242;12.448;2023-06-22T05:57:46;101874.28;;;18.20;100.00
18765;BME280;9511;54.242;12.448;2023-06-22T06:00:14;101883.22;;;18.22;100.00
18765;BME280;9511;54.242;12.448;2023-06-22T06:02:41;101879.75;;;18.31;100.00
18765;BME280;9511;54.242;12.448;2023-06-22T06:05:10;101879.00;;;18.43;100.00
18765;BME280;9511;54.242;12.448;2023-06-22T06:07:39;101879.22;;;18.64;100.00
18765;BME280;9511;54.242;12.448;2023-06-22T06:10:07;101876.50;;;18.63;100.00
18765;BME280;9511;54.242;12.448;2023-06-22T06:12:35;101868.66;;;18.79;100.00
18765;BME280;9511;54.242;12.448;2023-06-22T06:15:05;101878.69;;;18.99;100.00
18765;BME280;9511;54.242;12.448;2023-06-22T06:17:32;101878.78;;;19.13;99.25
18765;BME280;9511;54.242;12.448;2023-06-22T06:19:59;101883.34;;;19.24;98.17
18765;BME280;9511;54.242;12.448;2023-06-22T06:22:27;101879.72;;;19.16;97.54
18765;BME280;9511;54.242;12.448;2023-06-22T06:24:54;101869.09;;;19.37;97.64
18765;BME280;9511;54.242;12.448;2023-06-22T06:27:21;101868.19;;;19.32;97.04
18765;BME280;9511;54.242;12.448;2023-06-22T06:29:56;101869.16;;;19.44;96.99
18765;BME280;9511;54.242;12.448;2023-06-22T06:32:25;101874.63;;;19.57;96.27
18765;BME280;9511;54.242;12.448;2023-06-22T06:34:52;101871.25;;;19.91;95.65
18765;BME280;9511;54.242;12.448;2023-06-22T06:37:19;101878.31;;;19.76;94.13
18765;BME280;9511;54.242;12.448;2023-06-22T06:39:47;101882.00;;;19.91;94.13
18765;BME280;9511;54.242;12.448;2023-06-22T06:42:14;101874.84;;;19.91;93.18
18765;BME280;9511;54.242;12.448;2023-06-22T06:44:41;101876.69;;;20.09;93.04
18765;BME280;9511;54.242;12.448;2023-06-22T06:47:09;101871.31;;;20.18;92.17
18765;BME280;9511;54.242;12.448;2023-06-22T06:49:37;101867.66;;;19.85;92.12
18765;BME280;9511;54.242;12.448;2023-06-22T06:52:06;101870.44;;;20.14;92.08
18765;BME280;9511;54.242;12.448;2023-06-22T06:54:33;101868.69;;;20.33;91.00
18765;BME280;9511;54.242;12.448;2023-06-22T06:57:01;101870.50;;;20.39;89.35
18765;BME280;9511;54.242;12.448;2023-06-22T06:59:29;101871.41;;;20.30;88.55
18765;BME280;9511;54.242;12.448;2023-06-22T07:01:57;101870.44;;;20.14;88.19
18765;BME280;9511;54.242;12.448;2023-06-22T07:04:24;101877.66;;;20.25;88.46
18765;BME280;9511;54.242;12.448;2023-06-22T07:06:53;101874.94;;;20.29;87.98
18765;BME280;9511;54.242;12.448;2023-06-22T07:09:20;101874.97;;;20.25;87.18
18765;BME280;9511;54.242;12.448;2023-06-22T07:11:47;101881.25;;;20.33;85.55
18765;BME280;9511;54.242;12.448;2023-06-22T07:14:15;101876.78;;;20.36;85.35
18765;BME280;9511;54.242;12.448;2023-06-22T07:16:42;101866.06;;;20.52;84.30
18765;BME280;9511;54.242;12.448;2023-06-22T07:19:10;101863.44;;;20.76;84.19
18765;BME280;9511;54.242;12.448;2023-06-22T07:21:38;101868.72;;;20.42;81.38
18765;BME280;9511;54.242;12.448;2023-06-22T07:24:07;101871.47;;;20.64;79.91
18765;BME280;9511;54.242;12.448;2023-06-22T07:26:34;101876.84;;;20.58;78.32
18765;BME280;9511;54.242;12.448;2023-06-22T07:29:01;101865.22;;;20.97;78.12
18765;BME280;9511;54.242;12.448;2023-06-22T07:31:30;101868.81;;;20.79;76.91
18765;BME280;9511;54.242;12.448;2023-06-22T07:33:57;101875.09;;;20.87;76.32
18765;BME280;9511;54.242;12.448;2023-06-22T07:36:25;101863.44;;;21.08;77.65
18765;BME280;9511;54.242;12.448;2023-06-22T07:38:52;101872.38;;;21.29;74.54
18765;BME280;9511;54.242;12.448;2023-06-22T07:41:20;101866.13;;;21.31;72.40
18765;BME280;9511;54.242;12.448;2023-06-22T07:43:48;101862.47;;;21.55;71.85
18765;BME280;9511;54.242;12.448;2023-06-22T07:46:16;101866.97;;;21.58;71.69
18765;BME280;9511;54.242;12.448;2023-06-22T07:48:43;101872.38;;;21.62;71.82
18765;BME280;9511;54.242;12.448;2023-06-22T07:51:11;101870.47;;;21.83;72.37
18765;BME280;9511;54.242;12.448;2023-06-22T07:53:40;101868.59;;;22.06;72.34
18765;BME280;9511;54.242;12.448;2023-06-22T07:56:10;101867.69;;;22.12;70.94
18765;BME280;9511;54.242;12.448;2023-06-22T07:58:38;101866.81;;;22.11;69.59
18765;BME280;9511;54.242;12.448;2023-06-22T08:01:06;101872.19;;;22.00;67.56
18765;BME280;9511;54.242;12.448;2023-06-22T08:03:33;101860.56;;;21.94;67.42
18765;BME280;9511;54.242;12.448;2023-06-22T08:06:00;101864.22;;;21.85;66.16
18765;BME280;9511;54.242;12.448;2023-06-22T08:08:28;101869.59;;;21.73;66.29
18765;BME280;9511;54.242;12.448;2023-06-22T08:10:56;101876.81;;;21.71;65.97
18765;BME280;9511;54.242;12.448;2023-06-22T08:13:23;101875.09;;;21.30;65.24
18765;BME280;9511;54.242;12.448;2023-06-22T08:15:52;101867.88;;;21.44;66.67
18765;BME280;9511;54.242;12.448;2023-06-22T08:18:19;101866.97;;;21.59;66.50
18765;BME280;9511;54.242;12.448;2023-06-22T08:20:47;101866.88;;;21.84;66.21
18765;BME280;9511;54.242;12.448;2023-06-22T08:23:15;101867.75;;;21.90;66.30
18765;BME280;9511;54.242;12.448;2023-06-22T08:25:42;101864.19;;;21.88;66.71
18765;BME280;9511;54.242;12.448;2023-06-22T08:28:10;101859.59;;;22.16;65.95
18765;BME280;9511;54.242;12.448;2023-06-22T08:30:37;101862.19;;;22.35;64.63
18765;BME280;9511;54.242;12.448;2023-06-22T08:33:05;101858.56;;;22.39;64.09
18765;BME280;9511;54.242;12.448;2023-06-22T08:35:33;101869.34;;;22.36;62.64
18765;BME280;9511;54.242;12.448;2023-06-22T08:38:00;101863.91;;;22.45;63.46
18765;BME280;9511;54.242;12.448;2023-06-22T08:40:28;101866.78;;;22.16;63.97
18765;BME280;9511;54.242;12.448;2023-06-22T08:42:56;101876.47;;;22.47;63.92
18765;BME280;9511;54.242;12.448;2023-06-22T08:45:23;101884.44;;;22.69;64.25
18765;BME280;9511;54.242;12.448;2023-06-22T08:47:50;101875.31;;;22.91;64.11
18765;BME280;9511;54.242;12.448;2023-06-22T08:50:19;101862.38;;;23.27;62.55
18765;BME280;9511;54.242;12.448;2023-06-22T08:52:46;101861.53;;;23.23;59.32
18765;BME280;9511;54.242;12.448;2023-06-22T08:55:14;101861.44;;;23.34;57.24
18765;BME280;9511;54.242;12.448;2023-06-22T08:57:41;101860.44;;;23.41;56.09
18765;BME280;9511;54.242;12.448;2023-06-22T09:00:11;101866.72;;;23.43;55.34
18765;BME280;9511;54.242;12.448;2023-06-22T09:02:46;101857.75;;;23.41;52.99
18765;BME280;9511;54.242;12.448;2023-06-22T09:05:14;101874.63;;;23.62;54.17
18765;BME280;9511;54.242;12.448;2023-06-22T09:07:43;101867.59;;;23.45;54.82
18765;BME280;9511;54.242;12.448;2023-06-22T09:10:10;101866.81;;;23.36;54.09
18765;BME280;9511;54.242;12.448;2023-06-22T09:12:39;101875.53;;;23.61;53.30
18765;BME280;9511;54.242;12.448;2023-06-22T09:15:07;101869.47;;;23.40;53.39
18765;BME280;9511;54.242;12.448;2023-06-22T09:17:34;101865.63;;;23.61;54.33
18765;BME280;9511;54.242;12.448;2023-06-22T09:20:03;101863.56;;;23.84;52.80
18765;BME280;9511;54.242;12.448;2023-06-22T09:22:31;101859.66;;;24.08;51.56
18765;BME280;9511;54.242;12.448;2023-06-22T09:25:00;101857.94;;;24.04;52.50
18765;BME280;9511;54.242;12.448;2023-06-22T09:27:29;101857.88;;;24.07;52.88
18765;BME280;9511;54.242;12.448;2023-06-22T09:29:56;101858.63;;;24.19;52.74
18765;BME280;9511;54.242;12.448;2023-06-22T09:32:24;101850.09;;;24.51;52.38
18765;BME280;9511;54.242;12.448;2023-06-22T09:34:52;101844.50;;;24.63;53.02
18765;BME280;9511;54.242;12.448;2023-06-22T09:37:19;101851.91;;;24.50;52.40
18765;BME280;9511;54.242;12.448;2023-06-22T09:39:46;101854.34;;;24.66;52.24
18765;BME280;9511;54.242;12.448;2023-06-22T09:42:15;101847.16;;;24.64;51.44
18765;BME280;9511;54.242;12.448;2023-06-22T09:44:42;101838.06;;;24.72;50.16
18765;BME280;9511;54.242;12.448;2023-06-22T09:47:09;101832.06;;;25.05;49.99
18765;BME280;9511;54.242;12.448;2023-06-22T09:49:37;101836.00;;;24.86;49.43
18765;BME280;9511;54.242;12.448;2023-06-22T09:52:05;101840.69;;;24.75;48.80
18765;BME280;9511;54.242;12.448;2023-06-22T09:54:32;101839.63;;;24.85;49.04
18765;BME280;9511;54.242;12.448;2023-06-22T09:57:00;101835.78;;;24.98;49.16
18765;BME280;9511;54.242;12.448;2023-06-22T09:59:28;101853.69;;;25.08;48.54
18765;BME280;9511;54.242;12.448;2023-06-22T10:01:56;101847.47;;;25.02;47.88
18765;BME280;9511;54.242;12.448;2023-06-22T10:04:23;101847.75;;;25.37;48.43
18765;BME280;9511;54.242;12.448;2023-06-22T10:06:51;101846.78;;;25.40;48.04
18765;BME280;9511;54.242;12.448;2023-06-22T10:09:18;101854.69;;;25.52;48.34
18765;BME280;9511;54.242;12.448;2023-06-22T10:11:47;101853.06;;;25.42;48.09
18765;BME280;9511;54.242;12.448;2023-06-22T10:14:14;101849.19;;;25.55;47.62
18765;BME280;9511;54.242;12.448;2023-06-22T10:16:44;101844.72;;;25.54;46.68
18765;BME280;9511;54.242;12.448;2023-06-22T10:19:11;101838.03;;;25.72;47.51
18765;BME280;9511;54.242;12.448;2023-06-22T10:21:38;101840.63;;;25.78;48.04
18765;BME280;9511;54.242;12.448;2023-06-22T10:24:06;101841.53;;;25.79;46.84
18765;BME280;9511;54.242;12.448;2023-06-22T10:26:33;101834.78;;;25.07;47.46
18765;BME280;9511;54.242;12.448;2023-06-22T10:29:01;101835.16;;;25.33;47.60
18765;BME280;9511;54.242;12.448;2023-06-22T10:31:28;101831.53;;;25.36;48.21
18765;BME280;9511;54.242;12.448;2023-06-22T10:33:57;101824.38;;;25.78;48.91
18765;BME280;9511;54.242;12.448;2023-06-22T10:36:24;101834.91;;;25.92;46.97
18765;BME280;9511;54.242;12.448;2023-06-22T10:38:52;101833.47;;;25.76;46.58
18765;BME280;9511;54.242;12.448;2023-06-22T10:41:19;101827.25;;;26.12;46.11
18765;BME280;9511;54.242;12.448;2023-06-22T10:43:46;101831.72;;;25.72;46.80
18765;BME280;9511;54.242;12.448;2023-06-22T10:46:14;101834.78;;;25.53;46.12
18765;BME280;9511;54.242;12.448;2023-06-22T10:48:41;101825.38;;;25.26;46.87
18765;BME280;9511;54.242;12.448;2023-06-22T10:51:09;101816.84;;;25.92;47.74
18765;BME280;9511;54.242;12.448;2023-06-22T10:53:37;101816.84;;;26.31;46.36
18765;BME280;9511;54.242;12.448;2023-06-22T10:56:04;101814.28;;;26.27;45.91
18765;BME280;9511;54.242;12.448;2023-06-22T10:58:31;101822.28;;;25.91;46.29
18765;BME280;9511;54.242;12.448;2023-06-22T11:00:59;101813.13;;;25.98;45.72
18765;BME280;9511;54.242;12.448;2023-06-22T11:03:26;101814.81;;;26.44;46.74
18765;BME280;9511;54.242;12.448;2023-06-22T11:05:53;101805.63;;;26.48;45.80
18765;BME280;9511;54.242;12.448;2023-06-22T11:08:22;101807.69;;;26.37;44.69
18765;BME280;9511;54.242;12.448;2023-06-22T11:10:51;101815.13;;;26.29;44.74
18765;BME280;9511;54.242;12.448;2023-06-22T11:13:18;101798.97;;;26.97;44.88
18765;BME280;9511;54.242;12.448;2023-06-22T11:15:45;101802.25;;;26.76;43.84
18765;BME280;9511;54.242;12.448;2023-06-22T11:18:13;101797.44;;;26.87;44.63
18765;BME280;9511;54.242;12.448;2023-06-22T11:20:40;101796.78;;;27.11;43.31
18765;BME280;9511;54.242;12.448;2023-06-22T11:23:07;101799.31;;;26.85;43.89
18765;BME280;9511;54.242;12.448;2023-06-22T11:25:36;101797.03;;;27.00;43.37
18765;BME280;9511;54.242;12.448;2023-06-22T11:28:04;101792.00;;;27.21;42.18
18765;BME280;9511;54.242;12.448;2023-06-22T11:30:32;101792.38;;;27.41;42.42
18765;BME280;9511;54.242;12.448;2023-06-22T11:33:00;101790.69;;;27.67;41.20
18765;BME280;9511;54.242;12.448;2023-06-22T11:35:27;101796.59;;;28.12;40.95
18765;BME280;9511;54.242;12.448;2023-06-22T11:37:54;101795.63;;;27.85;40.45
18765;BME280;9511;54.242;12.448;2023-06-22T11:40:23;101790.84;;;28.21;40.70
18765;BME280;9511;54.242;12.448;2023-06-22T11:42:51;101792.84;;;28.16;40.68
18765;BME280;9511;54.242;12.448;2023-06-22T11:45:19;101787.69;;;28.07;40.64
18765;BME280;9511;54.242;12.448;2023-06-22T11:47:46;101784.19;;;28.31;41.27
18765;BME280;9511;54.242;12.448;2023-06-22T11:50:14;101785.88;;;28.64;40.34
18765;BME280;9511;54.242;12.448;2023-06-22T11:52:41;101782.47;;;28.57;39.62
18765;BME280;9511;54.242;12.448;2023-06-22T11:55:08;101777.66;;;28.65;39.54
18765;BME280;9511;54.242;12.448;2023-06-22T11:57:37;101775.69;;;28.97;38.13
18765;BME280;9511;54.242;12.448;2023-06-22T12:00:07;101769.28;;;28.98;37.88
18765;BME280;9511;54.242;12.448;2023-06-22T12:02:42;101780.69;;;29.09;37.26
18765;BME280;9511;54.242;12.448;2023-06-22T12:05:09;101779.09;;;29.03;37.13
18765;BME280;9511;54.242;12.448;2023-06-22T12:07:36;101767.69;;;28.91;37.81
18765;BME280;9511;54.242;12.448;2023-06-22T12:10:05;101779.84;;;29.07;36.95
18765;BME280;9511;54.242;12.448;2023-06-22T12:12:32;101778.78;;;28.84;37.47
18765;BME280;9511;54.242;12.448;2023-06-22T12:14:59;101777.84;;;29.37;37.30
18765;BME280;9511;54.242;12.448;2023-06-22T12:17:31;101779.75;;;29.10;37.02
18765;BME280;9511;54.242;12.448;2023-06-22T12:19:58;101763.16;;;28.90;37.10
18765;BME280;9511;54.242;12.448;2023-06-22T12:22:25;101768.75;;;28.87;37.10
18765;BME280;9511;54.242;12.448;2023-06-22T12:24:53;101768.94;;;28.54;37.32
18765;BME280;9511;54.242;12.448;2023-06-22T12:27:20;101764.50;;;28.78;37.60
18765;BME280;9511;54.242;12.448;2023-06-22T12:29:47;101766.66;;;28.95;38.57
18765;BME280;9511;54.242;12.448;2023-06-22T12:32:14;101757.16;;;29.31;37.47
18765;BME280;9511;54.242;12.448;2023-06-22T12:34:44;101755.56;;;29.74;36.63
18765;BME280;9511;54.242;12.448;2023-06-22T12:37:11;101758.34;;;29.73;34.96
18765;BME280;9511;54.242;12.448;2023-06-22T12:39:40;101752.38;;;29.38;36.46
18765;BME280;9511;54.242;12.448;2023-06-22T12:42:07;101753.63;;;29.76;37.73
18765;BME280;9511;54.242;12.448;2023-06-22T12:44:35;101761.50;;;29.12;36.77
18765;BME280;9511;54.242;12.448;2023-06-22T12:47:02;101768.72;;;29.63;35.48
18765;BME280;9511;54.242;12.448;2023-06-22T12:49:30;101765.09;;;29.13;36.09
18765;BME280;9511;54.242;12.448;2023-06-22T12:51:58;101766.50;;;29.24;35.50
18765;BME280;9511;54.242;12.448;2023-06-22T12:54:26;101754.13;;;29.64;36.80
18765;BME280;9511;54.242;12.448;2023-06-22T12:56:54;101767.41;;;29.97;34.35
18765;BME280;9511;54.242;12.448;2023-06-22T12:59:21;101750.53;;;30.09;34.13
18765;BME280;9511;54.242;12.448;2023-06-22T13:01:48;101752.09;;;29.69;34.10
18765;BME280;9511;54.242;12.448;2023-06-22T13:04:15;101759.94;;;29.78;34.86
18765;BME280;9511;54.242;12.448;2023-06-22T13:06:44;101758.38;;;29.48;34.12
18765;BME280;9511;54.242;12.448;2023-06-22T13:09:15;101750.50;;;29.15;35.08
18765;BME280;9511;54.242;12.448;2023-06-22T13:11:43;101759.75;;;29.34;34.46
18765;BME280;9511;54.242;12.448;2023-06-22T13:14:10;101762.38;;;29.38;35.33
18765;BME280;9511;54.242;12.448;2023-06-22T13:16:37;101753.50;;;28.81;34.95
18765;BME280;9511;54.242;12.448;2023-06-22T13:19:04;101750.44;;;29.17;35.37
18765;BME280;9511;54.242;12.448;2023-06-22T13:21:32;101746.72;;;29.19;35.51
18765;BME280;9511;54.242;12.448;2023-06-22T13:24:00;101735.00;;;29.87;34.88
18765;BME280;9511;54.242;12.448;2023-06-22T13:26:28;101737.63;;;30.14;34.05
18765;BME280;9511;54.242;12.448;2023-06-22T13:28:56;101731.63;;;30.48;34.23
18765;BME280;9511;54.242;12.448;2023-06-22T13:31:23;101732.03;;;31.02;34.53
18765;BME280;9511;54.242;12.448;2023-06-22T13:33:50;101723.84;;;31.02;34.21
18765;BME280;9511;54.242;12.448;2023-06-22T13:36:18;101722.50;;;30.91;32.06
18765;BME280;9511;54.242;12.448;2023-06-22T13:38:45;101725.91;;;30.76;33.18
18765;BME280;9511;54.242;12.448;2023-06-22T13:41:13;101719.81;;;31.10;32.11
18765;BME280;9511;54.242;12.448;2023-06-22T13:43:41;101712.88;;;31.03;32.38
18765;BME280;9511;54.242;12.448;2023-06-22T13:46:09;101706.25;;;31.09;32.52
18765;BME280;9511;54.242;12.448;2023-06-22T13:48:36;101705.06;;;30.94;32.03
18765;BME280;9511;54.242;12.448;2023-06-22T13:51:03;101704.88;;;30.99;33.25
18765;BME280;9511;54.242;12.448;2023-06-22T13:53:30;101694.03;;;31.36;31.49
18765;BME280;9511;54.242;12.448;2023-06-22T13:55:58;101697.47;;;31.60;33.36
18765;BME280;9511;54.242;12.448;2023-06-22T13:58:25;101687.53;;;31.77;31.27
18765;BME280;9511;54.242;12.448;2023-06-22T14:00:53;101688.31;;;31.61;33.16
18765;BME280;9511;54.242;12.448;2023-06-22T14:03:21;101694.13;;;32.10;31.14
18765;BME280;9511;54.242;12.448;2023-06-22T14:05:48;101694.19;;;31.33;29.95
18765;BME280;9511;54.242;12.448;2023-06-22T14:08:15;101690.28;;;31.18;30.69
18765;BME280;9511;54.242;12.448;2023-06-22T14:10:43;101692.72;;;30.85;30.74
18765;BME280;9511;54.242;12.448;2023-06-22T14:13:10;101687.63;;;30.97;32.61
18765;BME280;9511;54.242;12.448;2023-06-22T14:15:37;101680.53;;;31.33;31.59
18765;BME280;9511;54.242;12.448;2023-06-22T14:18:06;101689.78;;;31.50;30.60
18765;BME280;9511;54.242;12.448;2023-06-22T14:20:33;101686.16;;;31.87;30.25
18765;BME280;9511;54.242;12.448;2023-06-22T14:23:00;101685.63;;;31.97;32.11
18765;BME280;9511;54.242;12.448;2023-06-22T14:25:27;101671.28;;;31.92;30.98
18765;BME280;9511;54.242;12.448;2023-06-22T14:27:55;101677.28;;;32.37;29.52
18765;BME280;9511;54.242;12.448;2023-06-22T14:30:22;101678.91;;;32.41;29.03
18765;BME280;9511;54.242;12.448;2023-06-22T14:32:49;101675.72;;;31.76;30.29
18765;BME280;9511;54.242;12.448;2023-06-22T14:35:18;101671.53;;;32.24;30.47
18765;BME280;9511;54.242;12.448;2023-06-22T14:37:47;101670.13;;;32.86;29.59
18765;BME280;9511;54.242;12.448;2023-06-22T14:40:15;101672.53;;;33.10;29.24
18765;BME280;9511;54.242;12.448;2023-06-22T14:42:42;101659.25;;;32.67;29.87
18765;BME280;9511;54.242;12.448;2023-06-22T14:45:10;101665.88;;;32.27;28.72
18765;BME280;9511;54.242;12.448;2023-06-22T14:47:37;101670.94;;;32.36;29.00
18765;BME280;9511;54.242;12.448;2023-06-22T14:50:06;101675.13;;;31.88;30.63
18765;BME280;9511;54.242;12.448;2023-06-22T14:52:34;101671.00;;;31.61;30.63
18765;BME280;9511;54.242;12.448;2023-06-22T14:55:02;101665.91;;;31.72;30.15
18765;BME280;9511;54.242;12.448;2023-06-22T14:57:29;101660.50;;;31.52;30.97
18765;BME280;9511;54.242;12.448;2023-06-22T14:59:57;101662.25;;;31.53;32.21
18765;BME280;9511;54.242;12.448;2023-06-22T15:02:24;101656.50;;;31.78;30.80
18765;BME280;9511;54.242;12.448;2023-06-22T15:04:51;101658.31;;;31.77;31.20
18765;BME280;9511;54.242;12.448;2023-06-22T15:07:20;101648.47;;;32.11;31.39
18765;BME280;9511;54.242;12.448;2023-06-22T15:09:48;101653.25;;;31.88;30.51
18765;BME280;9511;54.242;12.448;2023-06-22T15:12:16;101643.88;;;31.37;30.51
18765;BME280;9511;54.242;12.448;2023-06-22T15:14:43;101636.25;;;31.82;31.55
18765;BME280;9511;54.242;12.448;2023-06-22T15:17:10;101636.41;;;32.15;30.94
18765;BME280;9511;54.242;12.448;2023-06-22T15:19:40;101633.56;;;32.53;29.64
18765;BME280;9511;54.242;12.448;2023-06-22T15:22:07;101637.72;;;32.77;29.32
18765;BME280;9511;54.242;12.448;2023-06-22T15:24:34;101624.56;;;32.84;29.58
18765;BME280;9511;54.242;12.448;2023-06-22T15:27:04;101614.28;;;32.89;30.91
18765;BME280;9511;54.242;12.448;2023-06-22T15:29:31;101604.03;;;32.75;28.84
18765;BME280;9511;54.242;12.448;2023-06-22T15:32:00;101603.84;;;32.95;30.18
18765;BME280;9511;54.242;12.448;2023-06-22T15:34:27;101595.88;;;32.91;29.17
18765;BME280;9511;54.242;12.448;2023-06-22T15:36:54;101592.38;;;33.20;29.63
18765;BME280;9511;54.242;12.448;2023-06-22T15:39:22;101585.19;;;32.34;30.17
18765;BME280;9511;54.242;12.448;2023-06-22T15:41:52;101580.31;;;31.87;30.87
18765;BME280;9511;54.242;12.448;2023-06-22T15:44:22;101579.19;;;31.36;30.88
18765;BME280;9511;54.242;12.448;2023-06-22T15:46:49;101583.50;;;30.63;32.53
18765;BME280;9511;54.242;12.448;2023-06-22T15:49:17;101575.50;;;30.38;32.91
18765;BME280;9511;54.242;12.448;2023-06-22T15:51:44;101571.00;;;30.37;33.41
18765;BME280;9511;54.242;12.448;2023-06-22T15:54:11;101561.53;;;30.26;34.27